AFR551 HECA-LFPG
Flight info
| Callsign | AFR551 |
|---|---|
| Flight time | N/A |
| Altitude | 36000 |
| Route | MENKU Y661 ANTAR DCT KUGGI DCT VJOSA DCT PAPIZ DCT LUMAR DCT RIVAM DCT ANC DCT CERVI DCT MOLUS DCT UNKIR DCT TINIL |
| Aircraft | A359/H-SABDE2E3GHIJ1J2J3J4J5M1P2RWXYZ/LB1D1 |
Departure
| Time | 2026-05-07 15:16 |
|---|---|
| Airport | Cairo International Airport (HECA) |
Arrival
| Time | N/A |
|---|---|
| Airport | Charles de Gaulle International Airport (LFPG) |
| Time | Latitude | Longitude | Altitude | Speed | Heading |
|---|---|---|---|---|---|
| 2026-05-07 14:38 | 30.11326 | 31.40098 | 381 ft | 0 kts | 242° |
| 2026-05-07 14:45 | 30.11326 | 31.40099 | 381 ft | 0 kts | 242° |
| 2026-05-07 14:53 | 30.11326 | 31.40100 | 380 ft | 0 kts | 242° |
| 2026-05-07 14:54 | 30.11327 | 31.40100 | 380 ft | 0 kts | 242° |
| 2026-05-07 14:58 | 30.11331 | 31.40109 | 380 ft | 9 kts | 242° |
| 2026-05-07 14:58 | 30.11341 | 31.40131 | 380 ft | 10 kts | 241° |
| 2026-05-07 14:59 | 30.11357 | 31.40155 | 380 ft | 21 kts | 213° |
| 2026-05-07 14:59 | 30.11379 | 31.40167 | 380 ft | 47 kts | 196° |
| 2026-05-07 14:59 | 30.11401 | 31.40176 | 380 ft | 42 kts | 214° |
| 2026-05-07 14:59 | 30.11421 | 31.40197 | 380 ft | 42 kts | 230° |
| 2026-05-07 15:00 | 30.11431 | 31.40211 | 380 ft | 17 kts | 229° |
| 2026-05-07 15:03 | 30.11424 | 31.40202 | 380 ft | 5 kts | 225° |
| 2026-05-07 15:03 | 30.11365 | 31.40182 | 380 ft | 13 kts | 169° |
| 2026-05-07 15:04 | 30.11314 | 31.40251 | 380 ft | 0 kts | 109° |
| 2026-05-07 15:05 | 30.11301 | 31.40300 | 380 ft | 12 kts | 107° |
| 2026-05-07 15:05 | 30.11246 | 31.40407 | 380 ft | 17 kts | 134° |
| 2026-05-07 15:05 | 30.11153 | 31.40505 | 380 ft | 19 kts | 141° |
| 2026-05-07 15:05 | 30.11059 | 31.40595 | 380 ft | 6 kts | 139° |
| 2026-05-07 15:06 | 30.11015 | 31.40622 | 380 ft | 8 kts | 169° |
| 2026-05-07 15:06 | 30.10963 | 31.40590 | 380 ft | 12 kts | 223° |
| 2026-05-07 15:06 | 30.10891 | 31.40499 | 380 ft | 19 kts | 229° |
| 2026-05-07 15:06 | 30.10784 | 31.40357 | 380 ft | 19 kts | 229° |
| 2026-05-07 15:07 | 30.10694 | 31.40319 | 380 ft | 15 kts | 162° |
| 2026-05-07 15:07 | 30.10629 | 31.40301 | 380 ft | 15 kts | 217° |
| 2026-05-07 15:07 | 30.10550 | 31.40204 | 380 ft | 18 kts | 229° |
| 2026-05-07 15:07 | 30.10462 | 31.40125 | 380 ft | 15 kts | 187° |
| 2026-05-07 15:08 | 30.10379 | 31.40173 | 380 ft | 3 kts | 140° |
| 2026-05-07 15:13 | 30.10380 | 31.40173 | 380 ft | 0 kts | 140° |
| 2026-05-07 15:14 | 30.10336 | 31.40215 | 380 ft | 14 kts | 140° |
| 2026-05-07 15:15 | 30.10309 | 31.40275 | 380 ft | 7 kts | 70° |
| 2026-05-07 15:15 | 30.10331 | 31.40308 | 381 ft | 0 kts | 49° |
| 2026-05-07 15:16 | 30.10389 | 31.40385 | 383 ft | 41 kts | 49° |
| 2026-05-07 15:16 | 30.10732 | 31.40840 | 378 ft | 108 kts | 49° |
| 2026-05-07 15:16 | 30.11353 | 31.41668 | 388 ft | 163 kts | 50° |
| 2026-05-07 15:16 | 30.12087 | 31.42692 | 1075 ft | 162 kts | 45° |
| 2026-05-07 15:17 | 30.12831 | 31.43643 | 1870 ft | 162 kts | 46° |
| 2026-05-07 15:17 | 30.13642 | 31.44663 | 2237 ft | 185 kts | 45° |
| 2026-05-07 15:17 | 30.14567 | 31.45848 | 2480 ft | 214 kts | 45° |
| 2026-05-07 15:17 | 30.15707 | 31.47106 | 2835 ft | 236 kts | 35° |
| 2026-05-07 15:18 | 30.17218 | 31.47877 | 3539 ft | 243 kts | 12° |
| 2026-05-07 15:18 | 30.18906 | 31.47686 | 4272 ft | 251 kts | 339° |
| 2026-05-07 15:18 | 30.20396 | 31.46596 | 5049 ft | 258 kts | 323° |
| 2026-05-07 15:18 | 30.21698 | 31.45140 | 5865 ft | 262 kts | 314° |
| 2026-05-07 15:19 | 30.22880 | 31.43536 | 6719 ft | 263 kts | 310° |
| 2026-05-07 15:19 | 30.24017 | 31.41885 | 7635 ft | 261 kts | 310° |
| 2026-05-07 15:19 | 30.25159 | 31.40243 | 8502 ft | 265 kts | 311° |
| 2026-05-07 15:19 | 30.26354 | 31.38582 | 9225 ft | 272 kts | 312° |
| 2026-05-07 15:20 | 30.27594 | 31.36916 | 10068 ft | 274 kts | 313° |
| 2026-05-07 15:20 | 30.28882 | 31.35230 | 10555 ft | 289 kts | 313° |
| 2026-05-07 15:20 | 30.30271 | 31.33436 | 10852 ft | 310 kts | 313° |
| 2026-05-07 15:20 | 30.31762 | 31.31519 | 11152 ft | 329 kts | 313° |
| 2026-05-07 15:21 | 30.33327 | 31.29506 | 11601 ft | 342 kts | 313° |
| 2026-05-07 15:21 | 30.34933 | 31.27437 | 12264 ft | 347 kts | 313° |
| 2026-05-07 15:21 | 30.36552 | 31.25345 | 12974 ft | 351 kts | 313° |
| 2026-05-07 15:21 | 30.38181 | 31.23235 | 13717 ft | 353 kts | 313° |
| 2026-05-07 15:22 | 30.39828 | 31.21100 | 14346 ft | 357 kts | 313° |
| 2026-05-07 15:22 | 30.41489 | 31.18948 | 14923 ft | 361 kts | 313° |
| 2026-05-07 15:22 | 30.43173 | 31.16766 | 15489 ft | 365 kts | 313° |
| 2026-05-07 15:22 | 30.44876 | 31.14558 | 16093 ft | 369 kts | 313° |
| 2026-05-07 15:23 | 30.46590 | 31.12333 | 16742 ft | 371 kts | 313° |
| 2026-05-07 15:23 | 30.48320 | 31.10086 | 17399 ft | 374 kts | 313° |
| 2026-05-07 15:23 | 30.50059 | 31.07827 | 18058 ft | 377 kts | 313° |
| 2026-05-07 15:23 | 30.51811 | 31.05548 | 18684 ft | 380 kts | 313° |
| 2026-05-07 15:24 | 30.53580 | 31.03248 | 19232 ft | 384 kts | 313° |
| 2026-05-07 15:24 | 30.55364 | 31.00925 | 19823 ft | 387 kts | 313° |
| 2026-05-07 15:24 | 30.57158 | 30.98588 | 20423 ft | 389 kts | 312° |
| 2026-05-07 15:24 | 30.58964 | 30.96234 | 21027 ft | 393 kts | 312° |
| 2026-05-07 15:25 | 30.60788 | 30.93855 | 21634 ft | 396 kts | 312° |
| 2026-05-07 15:25 | 30.62626 | 30.91457 | 22274 ft | 399 kts | 312° |
| 2026-05-07 15:25 | 30.64477 | 30.89040 | 22889 ft | 402 kts | 311° |
| 2026-05-07 15:25 | 30.66342 | 30.86603 | 23500 ft | 405 kts | 311° |
| 2026-05-07 15:26 | 30.68218 | 30.84149 | 24042 ft | 408 kts | 311° |
| 2026-05-07 15:26 | 30.70111 | 30.81672 | 24601 ft | 410 kts | 311° |
| 2026-05-07 15:26 | 30.72007 | 30.79189 | 25155 ft | 411 kts | 312° |
| 2026-05-07 15:26 | 30.73910 | 30.76696 | 25720 ft | 413 kts | 312° |
| 2026-05-07 15:27 | 30.75819 | 30.74195 | 26253 ft | 415 kts | 312° |
| 2026-05-07 15:27 | 30.77741 | 30.71674 | 26786 ft | 417 kts | 312° |
| 2026-05-07 15:27 | 30.79672 | 30.69140 | 27317 ft | 419 kts | 312° |
| 2026-05-07 15:27 | 30.81610 | 30.66595 | 27859 ft | 421 kts | 313° |
| 2026-05-07 15:28 | 30.83555 | 30.64039 | 28380 ft | 423 kts | 313° |
| 2026-05-07 15:28 | 30.85509 | 30.61470 | 28886 ft | 425 kts | 314° |
| 2026-05-07 15:28 | 30.87500 | 30.58911 | 29370 ft | 427 kts | 317° |
| 2026-05-07 15:28 | 30.89547 | 30.56387 | 29744 ft | 430 kts | 318° |
| 2026-05-07 15:29 | 30.91631 | 30.53879 | 30105 ft | 431 kts | 322° |
| 2026-05-07 15:29 | 30.93765 | 30.51473 | 30243 ft | 435 kts | 323° |
| 2026-05-07 15:29 | 30.95938 | 30.49009 | 30467 ft | 436 kts | 322° |
| 2026-05-07 15:29 | 30.98058 | 30.46486 | 30778 ft | 436 kts | 321° |
| 2026-05-07 15:30 | 31.00132 | 30.43906 | 31066 ft | 435 kts | 320° |
| 2026-05-07 15:30 | 31.02166 | 30.41295 | 31313 ft | 435 kts | 320° |
| 2026-05-07 15:30 | 31.04178 | 30.38660 | 31594 ft | 434 kts | 319° |
| 2026-05-07 15:30 | 31.06157 | 30.36026 | 31951 ft | 431 kts | 320° |
| 2026-05-07 15:31 | 31.08144 | 30.33410 | 32224 ft | 429 kts | 322° |
| 2026-05-07 15:31 | 31.10304 | 30.31043 | 32484 ft | 425 kts | 329° |
| 2026-05-07 15:31 | 31.15181 | 30.27094 | 32604 ft | 429 kts | 334° |
| 2026-05-07 15:32 | 31.20311 | 30.23419 | 32718 ft | 435 kts | 335° |
| 2026-05-07 15:32 | 31.22885 | 30.21583 | 32928 ft | 434 kts | 335° |
| 2026-05-07 15:32 | 31.25457 | 30.19738 | 33153 ft | 432 kts | 335° |
| 2026-05-07 15:33 | 31.28018 | 30.17899 | 33334 ft | 432 kts | 335° |
| 2026-05-07 15:33 | 31.30579 | 30.16056 | 33466 ft | 432 kts | 335° |
| 2026-05-07 15:33 | 31.33137 | 30.14207 | 33604 ft | 432 kts | 335° |
| 2026-05-07 15:33 | 31.35687 | 30.12356 | 33795 ft | 431 kts | 335° |
| 2026-05-07 15:34 | 31.38226 | 30.10511 | 34043 ft | 426 kts | 334° |
| 2026-05-07 15:34 | 31.40691 | 30.08698 | 34621 ft | 414 kts | 336° |
| 2026-05-07 15:34 | 31.45643 | 30.05221 | 34609 ft | 418 kts | 336° |
| 2026-05-07 15:35 | 31.48113 | 30.03475 | 34440 ft | 423 kts | 335° |
| 2026-05-07 15:35 | 31.50621 | 30.01651 | 34444 ft | 424 kts | 334° |
| 2026-05-07 15:35 | 31.53109 | 29.99809 | 34552 ft | 423 kts | 335° |
| 2026-05-07 15:35 | 31.55599 | 29.97974 | 34634 ft | 422 kts | 335° |
| 2026-05-07 15:36 | 31.60586 | 29.94324 | 34711 ft | 422 kts | 335° |
| 2026-05-07 15:36 | 31.65574 | 29.90681 | 34800 ft | 422 kts | 335° |
| 2026-05-07 15:37 | 31.70555 | 29.87037 | 34879 ft | 422 kts | 335° |
| 2026-05-07 15:37 | 31.75537 | 29.83391 | 34932 ft | 423 kts | 336° |
| 2026-05-07 15:38 | 31.78049 | 29.81560 | 34781 ft | 426 kts | 334° |
| 2026-05-07 15:38 | 31.80521 | 29.79697 | 35111 ft | 418 kts | 334° |
| 2026-05-07 15:38 | 31.82971 | 29.77883 | 35233 ft | 416 kts | 335° |
| 2026-05-07 15:38 | 31.85439 | 29.76096 | 35177 ft | 417 kts | 335° |
| 2026-05-07 15:39 | 31.90382 | 29.72487 | 35199 ft | 417 kts | 335° |
| 2026-05-07 15:39 | 31.95305 | 29.68861 | 35216 ft | 417 kts | 335° |
| 2026-05-07 15:40 | 32.00218 | 29.65230 | 35223 ft | 417 kts | 335° |
| 2026-05-07 15:40 | 32.05139 | 29.61585 | 35233 ft | 418 kts | 335° |
| 2026-05-07 15:41 | 32.07620 | 29.59758 | 35076 ft | 422 kts | 335° |
| 2026-05-07 15:41 | 32.10104 | 29.57904 | 35077 ft | 422 kts | 334° |
| 2026-05-07 15:41 | 32.15020 | 29.54225 | 35167 ft | 421 kts | 335° |
| 2026-05-07 15:42 | 32.17503 | 29.52357 | 35345 ft | 416 kts | 334° |
| 2026-05-07 15:42 | 32.19924 | 29.50539 | 35584 ft | 410 kts | 335° |
| 2026-05-07 15:42 | 32.24766 | 29.46992 | 35429 ft | 414 kts | 335° |
| 2026-05-07 15:43 | 32.29627 | 29.43366 | 35435 ft | 413 kts | 335° |
| 2026-05-07 15:43 | 32.34483 | 29.39723 | 35416 ft | 413 kts | 335° |
| 2026-05-07 15:44 | 32.39337 | 29.36076 | 35402 ft | 413 kts | 335° |
| 2026-05-07 15:44 | 32.44190 | 29.32427 | 35395 ft | 413 kts | 335° |
| 2026-05-07 15:45 | 32.49048 | 29.28772 | 35380 ft | 413 kts | 335° |
| 2026-05-07 15:45 | 32.53901 | 29.25115 | 35379 ft | 413 kts | 335° |
| 2026-05-07 15:46 | 32.58699 | 29.21475 | 35684 ft | 405 kts | 335° |
| 2026-05-07 15:46 | 32.61086 | 29.19699 | 35621 ft | 406 kts | 335° |
| 2026-05-07 15:46 | 32.63488 | 29.17916 | 35491 ft | 410 kts | 335° |
| 2026-05-07 15:47 | 32.65925 | 29.16101 | 35221 ft | 416 kts | 334° |
| 2026-05-07 15:47 | 32.70778 | 29.12369 | 35313 ft | 414 kts | 334° |
| 2026-05-07 15:48 | 32.75617 | 29.08684 | 35326 ft | 414 kts | 334° |
| 2026-05-07 15:48 | 32.80469 | 29.05009 | 35319 ft | 414 kts | 334° |
| 2026-05-07 15:49 | 32.85320 | 29.01329 | 35333 ft | 414 kts | 334° |
| 2026-05-07 15:49 | 32.90171 | 28.97642 | 35347 ft | 413 kts | 334° |
| 2026-05-07 15:50 | 32.94991 | 28.93977 | 35326 ft | 413 kts | 334° |
| 2026-05-07 15:50 | 32.97432 | 28.92104 | 35455 ft | 410 kts | 334° |
| 2026-05-07 15:50 | 32.99836 | 28.90276 | 35472 ft | 410 kts | 334° |
| 2026-05-07 15:51 | 33.04628 | 28.86641 | 35402 ft | 411 kts | 334° |
| 2026-05-07 15:51 | 33.09441 | 28.82961 | 35398 ft | 411 kts | 334° |
| 2026-05-07 15:52 | 33.14261 | 28.79267 | 35401 ft | 411 kts | 334° |
| 2026-05-07 15:52 | 33.19070 | 28.75579 | 35399 ft | 411 kts | 334° |
| 2026-05-07 15:53 | 33.23898 | 28.71885 | 35250 ft | 415 kts | 334° |
| 2026-05-07 15:53 | 33.28754 | 28.68130 | 35244 ft | 415 kts | 334° |
| 2026-05-07 15:54 | 33.33591 | 28.64385 | 35395 ft | 412 kts | 333° |
| 2026-05-07 15:54 | 33.38404 | 28.60698 | 35428 ft | 411 kts | 334° |
| 2026-05-07 15:55 | 33.43224 | 28.57001 | 35393 ft | 412 kts | 333° |
| 2026-05-07 15:55 | 33.48032 | 28.53284 | 35408 ft | 411 kts | 333° |
| 2026-05-07 15:56 | 33.52849 | 28.49563 | 35273 ft | 415 kts | 333° |
| 2026-05-07 15:56 | 33.57704 | 28.45781 | 35234 ft | 416 kts | 333° |
| 2026-05-07 15:57 | 33.61727 | 28.42639 | 35320 ft | 414 kts | 333° |
| 2026-05-07 15:57 | 33.66568 | 28.38887 | 35337 ft | 414 kts | 333° |
| 2026-05-07 15:58 | 33.71413 | 28.35133 | 35293 ft | 415 kts | 333° |
| 2026-05-07 15:58 | 33.76268 | 28.31351 | 35248 ft | 416 kts | 332° |
| 2026-05-07 15:59 | 33.80992 | 28.27423 | 35630 ft | 406 kts | 327° |
| 2026-05-07 15:59 | 33.83087 | 28.25186 | 35928 ft | 399 kts | 326° |
| 2026-05-07 15:59 | 33.85134 | 28.22968 | 36174 ft | 393 kts | 326° |
| 2026-05-07 15:59 | 33.87142 | 28.20785 | 36429 ft | 386 kts | 327° |
| 2026-05-07 16:00 | 33.89106 | 28.18637 | 36683 ft | 378 kts | 327° |
| 2026-05-07 16:00 | 33.91026 | 28.16522 | 36945 ft | 370 kts | 328° |
| 2026-05-07 16:00 | 33.92901 | 28.14447 | 37215 ft | 362 kts | 328° |
| 2026-05-07 16:00 | 33.94731 | 28.12419 | 37480 ft | 352 kts | 329° |
| 2026-05-07 16:01 | 33.96506 | 28.10455 | 37757 ft | 342 kts | 330° |
| 2026-05-07 16:01 | 33.98228 | 28.08550 | 38034 ft | 330 kts | 331° |
| 2026-05-07 16:01 | 33.99881 | 28.06716 | 38320 ft | 316 kts | 332° |
| 2026-05-07 16:01 | 34.01459 | 28.04958 | 38551 ft | 303 kts | 333° |
| 2026-05-07 16:02 | 34.02984 | 28.03273 | 38372 ft | 290 kts | 335° |
| 2026-05-07 16:02 | 34.04418 | 28.01667 | 38167 ft | 276 kts | 337° |
| 2026-05-07 16:02 | 34.05797 | 28.00134 | 38099 ft | 264 kts | 339° |
| 2026-05-07 16:02 | 34.07177 | 27.98673 | 37456 ft | 266 kts | 341° |
| 2026-05-07 16:03 | 34.08643 | 27.97191 | 36305 ft | 286 kts | 336° |
| 2026-05-07 16:03 | 34.10164 | 27.95556 | 35571 ft | 298 kts | 333° |
| 2026-05-07 16:03 | 34.11674 | 27.93819 | 35233 ft | 301 kts | 331° |
| 2026-05-07 16:03 | 34.13153 | 27.92055 | 35162 ft | 295 kts | 332° |
| 2026-05-07 16:04 | 34.14595 | 27.90339 | 35157 ft | 287 kts | 333° |
| 2026-05-07 16:04 | 34.16003 | 27.88691 | 35150 ft | 276 kts | 335° |
| 2026-05-07 16:04 | 34.17354 | 27.87135 | 35157 ft | 260 kts | 343° |
| 2026-05-07 16:04 | 34.18717 | 27.86417 | 33465 ft | 147 kts | 28° |
| 2026-05-07 16:05 | 34.19280 | 27.86361 | 27461 ft | 69 kts | 134° |
| 2026-05-07 16:05 | 34.19193 | 27.86386 | 20082 ft | 50 kts | 342° |
| 2026-05-07 16:05 | 34.19037 | 27.86454 | 13622 ft | 47 kts | 303° |
| 2026-05-07 16:05 | 34.18872 | 27.86591 | 6956 ft | 61 kts | 220° |
| 2026-05-07 16:06 | 34.18759 | 27.86638 | 2400 ft | 32 kts | 8° |